createdAt,value
2018-02-22T00:00:16.748Z,66.01
2018-02-22T00:02:45.295Z,66.42
2018-02-22T00:05:14.614Z,65.89
2018-02-22T00:07:43.231Z,67.42
2018-02-22T00:10:11.786Z,66.53
2018-02-22T00:12:40.329Z,65.95
2018-02-22T00:15:09.703Z,65.61
2018-02-22T00:17:38.253Z,65.90
2018-02-22T00:20:06.812Z,65.86
2018-02-22T00:22:35.505Z,66.63
2018-02-22T00:25:04.056Z,66.37
2018-02-22T00:27:32.612Z,67.13
2018-02-22T00:30:01.218Z,66.29
2018-02-22T00:32:30.548Z,65.90
2018-02-22T00:34:59.860Z,65.19
2018-02-22T00:37:28.680Z,65.37
2018-02-22T00:39:57.224Z,65.97
2018-02-22T00:42:25.780Z,66.68
2018-02-22T00:44:54.413Z,65.89
2018-02-22T00:47:23.320Z,66.57
2018-02-22T00:49:51.868Z,65.85
2018-02-22T00:52:20.697Z,66.50
2018-02-22T00:54:49.304Z,67.16
2018-02-22T00:57:17.861Z,67.53
2018-02-22T00:59:46.648Z,67.00
2018-02-22T01:02:15.965Z,66.42
2018-02-22T01:04:44.528Z,67.30
2018-02-22T01:07:13.316Z,68.12
2018-02-22T01:09:41.868Z,67.53
2018-02-22T01:12:10.416Z,67.55
2018-02-22T01:14:39.346Z,66.90
2018-02-22T01:17:07.901Z,66.20
2018-02-22T01:19:37.216Z,65.47
2018-02-22T01:22:05.910Z,65.29
2018-02-22T01:24:34.461Z,64.56
2018-02-22T01:27:03.784Z,65.58
2018-02-22T01:29:33.236Z,65.65
2018-02-22T01:32:02.555Z,65.79
2018-02-22T01:34:31.117Z,66.07
2018-02-22T01:37:00.004Z,66.21
2018-02-22T01:39:28.552Z,66.20
2018-02-22T01:41:57.105Z,66.27
2018-02-22T01:44:25.704Z,67.59
2018-02-22T01:46:55.021Z,67.19
2018-02-22T01:49:23.568Z,68.34
2018-02-22T01:51:52.168Z,67.35
2018-02-22T01:54:21.492Z,66.93
2018-02-22T01:56:50.043Z,66.66
2018-02-22T01:59:18.892Z,67.25
2018-02-22T02:01:47.441Z,67.49
2018-02-22T02:04:15.984Z,66.65
2018-02-22T02:06:44.584Z,66.76
2018-02-22T02:09:13.891Z,67.75
2018-02-22T02:11:43.202Z,67.48
2018-02-22T02:14:12.038Z,67.60
2018-02-22T02:16:40.592Z,66.86
2018-02-22T02:19:09.141Z,66.27
2018-02-22T02:21:38.525Z,66.84
2018-02-22T02:24:07.082Z,66.94
2018-02-22T02:26:35.626Z,66.23
2018-02-22T02:29:04.229Z,66.42
2018-02-22T02:31:32.818Z,66.33
2018-02-22T02:34:01.356Z,66.62
2018-02-22T02:36:30.824Z,66.10
2018-02-22T02:39:00.129Z,65.34
2018-02-22T02:41:28.668Z,64.96
2018-02-22T02:43:57.364Z,64.09
2018-02-22T02:46:25.903Z,63.30
2018-02-22T02:48:54.471Z,64.44
2018-02-22T02:51:23.059Z,64.33
2018-02-22T02:53:51.605Z,65.48
2018-02-22T02:56:20.165Z,65.98
2018-02-22T02:58:49.087Z,66.29
2018-02-22T03:04:19.247Z,67.12
2018-02-22T03:06:56.962Z,67.07
2018-02-22T03:09:25.926Z,67.71
2018-02-22T03:11:54.469Z,69.20
2018-02-22T03:14:23.012Z,68.28
2018-02-22T03:16:51.608Z,67.05
2018-02-22T03:19:20.165Z,67.01
2018-02-22T03:21:48.704Z,66.55
2018-02-22T03:24:18.068Z,67.84
2018-02-22T03:26:46.607Z,67.04
2018-02-22T03:29:15.153Z,67.45
2018-02-22T03:31:44.514Z,67.70
2018-02-22T03:34:13.064Z,67.28
2018-02-22T03:36:41.600Z,68.47
2018-02-22T03:39:10.364Z,68.37
2018-02-22T03:41:38.909Z,69.38
2018-02-22T03:44:07.476Z,69.32
2018-02-22T03:46:37.037Z,70.11
2018-02-22T03:49:05.577Z,70.45
2018-02-22T03:51:34.885Z,68.88
2018-02-22T03:54:03.708Z,67.78
2018-02-22T03:56:32.248Z,67.70
2018-02-22T03:59:01.557Z,68.31
2018-02-22T04:01:30.368Z,69.33
2018-02-22T04:03:58.908Z,68.31
2018-02-22T04:06:28.223Z,68.72
2018-02-22T04:08:56.918Z,69.02
2018-02-22T04:11:25.460Z,68.76
2018-02-22T04:13:54.008Z,69.04
2018-02-22T04:16:22.596Z,68.77
2018-02-22T04:18:51.140Z,68.89
2018-02-22T04:21:19.708Z,69.01
2018-02-22T04:23:49.269Z,69.01
2018-02-22T04:26:17.812Z,68.47
2018-02-22T04:28:46.348Z,68.00
2018-02-22T04:31:14.939Z,67.37
2018-02-22T04:33:43.480Z,67.88
2018-02-22T04:36:12.026Z,66.21
2018-02-22T04:38:41.591Z,66.66
2018-02-22T04:41:10.181Z,67.18
2018-02-22T04:43:38.732Z,66.91
2018-02-22T04:46:07.650Z,65.75
2018-02-22T04:48:36.189Z,64.98
2018-02-22T04:51:04.729Z,64.41
2018-02-22T04:53:33.497Z,64.51
2018-02-22T04:56:02.036Z,64.72
2018-02-22T04:58:30.616Z,64.30
2018-02-22T05:00:59.971Z,64.44
2018-02-22T05:03:28.508Z,65.46
2018-02-22T05:05:57.814Z,63.85
2018-02-22T05:08:26.633Z,64.11
2018-02-22T05:10:55.184Z,64.37
2018-02-22T05:13:23.724Z,64.29
2018-02-22T05:15:52.498Z,64.52
2018-02-22T05:18:21.036Z,64.55
2018-02-22T05:20:49.576Z,64.68
2018-02-22T05:23:18.167Z,64.55
2018-02-22T05:25:46.708Z,64.71
2018-02-22T05:28:15.256Z,65.45
2018-02-22T05:30:44.764Z,65.04
2018-02-22T05:33:14.096Z,65.12
2018-02-22T05:35:42.633Z,65.52
2018-02-22T05:38:11.472Z,64.59
2018-02-22T05:40:40.021Z,64.65
2018-02-22T05:43:09.337Z,65.54
2018-02-22T05:45:37.953Z,65.63
2018-02-22T05:48:06.501Z,64.92
2018-02-22T05:50:35.048Z,65.01
2018-02-22T05:53:04.009Z,64.50
2018-02-22T05:55:32.552Z,64.06
2018-02-22T05:58:01.103Z,63.85
2018-02-22T06:00:29.696Z,63.30
2018-02-22T06:02:59.012Z,63.26
2018-02-22T06:05:28.324Z,64.03
2018-02-22T06:07:56.937Z,63.74
2018-02-22T06:10:25.481Z,64.49
2018-02-22T06:12:54.793Z,64.33
2018-02-22T06:15:23.608Z,65.17
2018-02-22T06:17:52.145Z,65.13
2018-02-22T06:20:21.452Z,65.03
2018-02-22T06:22:51.005Z,64.34
2018-02-22T06:25:19.552Z,64.95
2018-02-22T06:27:48.097Z,64.80
2018-02-22T06:30:17.063Z,64.34
2018-02-22T06:32:45.628Z,64.78
2018-02-22T06:35:14.177Z,65.63
2018-02-22T06:37:43.541Z,65.57
2018-02-22T06:40:12.089Z,65.44
2018-02-22T06:42:40.633Z,65.91
2018-02-22T06:45:10.090Z,65.31
2018-02-22T06:47:38.631Z,65.23
2018-02-22T06:50:07.941Z,65.01
2018-02-22T06:52:36.525Z,65.67
2018-02-22T06:55:05.839Z,65.85
2018-02-22T06:57:34.385Z,65.85
2018-02-22T07:00:03.900Z,65.26
2018-02-22T07:02:33.225Z,65.21
2018-02-22T07:05:01.848Z,63.95
2018-02-22T07:07:30.441Z,63.33
2018-02-22T07:09:58.996Z,64.00
2018-02-22T07:12:27.545Z,64.13
2018-02-22T07:14:57.095Z,63.67
2018-02-22T07:17:25.645Z,63.46
2018-02-22T07:19:54.189Z,64.53
2018-02-22T07:22:22.797Z,64.29
2018-02-22T07:24:51.344Z,63.97
2018-02-22T07:27:19.954Z,63.91
2018-02-22T07:29:49.321Z,64.51
2018-02-22T07:32:17.870Z,64.36
2018-02-22T07:34:46.417Z,62.32
2018-02-22T07:37:15.785Z,62.80
2018-02-22T07:39:44.337Z,62.17
2018-02-22T07:42:12.904Z,62.64
2018-02-22T07:44:41.732Z,63.34
2018-02-22T07:47:10.280Z,61.94
2018-02-22T07:49:38.833Z,62.01
2018-02-22T07:52:08.207Z,62.39
2018-02-22T07:54:36.752Z,62.44
2018-02-22T07:57:05.303Z,62.54
2018-02-22T07:59:34.981Z,62.75
2018-02-22T08:02:03.528Z,62.53
2018-02-22T08:04:32.087Z,63.47
2018-02-22T08:07:01.447Z,63.68
2018-02-22T08:09:29.993Z,63.76
2018-02-22T08:11:58.573Z,62.18
2018-02-22T08:14:27.267Z,62.05
2018-02-22T08:16:55.808Z,62.28
2018-02-22T08:19:24.368Z,63.61
2018-02-22T08:21:52.971Z,63.32
2018-02-22T08:24:21.537Z,62.39
2018-02-22T08:26:50.848Z,62.59
2018-02-22T08:29:20.116Z,62.47
2018-02-22T08:31:48.664Z,61.79
2018-02-22T08:34:17.977Z,62.17
2018-02-22T08:36:46.902Z,62.83
2018-02-22T08:39:16.489Z,62.48
2018-02-22T08:41:45.026Z,62.00
2018-02-22T08:44:14.393Z,61.74
2018-02-22T08:46:42.935Z,62.25
2018-02-22T08:49:11.484Z,61.08
2018-02-22T08:51:40.085Z,60.54
2018-02-22T08:54:09.400Z,61.34
2018-02-22T08:56:37.969Z,60.68
2018-02-22T08:59:07.340Z,61.44
2018-02-22T09:01:36.656Z,61.41
2018-02-22T09:04:05.220Z,61.43
2018-02-22T09:06:33.817Z,62.51
2018-02-22T09:09:02.361Z,61.07
2018-02-22T09:11:30.910Z,61.39
2018-02-22T09:14:00.416Z,61.52
2018-02-22T09:16:29.729Z,62.06
2018-02-22T09:18:58.272Z,62.21
2018-02-22T09:21:26.866Z,61.93
2018-02-22T09:23:55.414Z,60.46
2018-02-22T09:26:23.961Z,60.91
2018-02-22T09:28:52.548Z,61.69
2018-02-22T09:31:21.097Z,60.87
2018-02-22T09:33:49.647Z,59.98
2018-02-22T09:36:18.640Z,60.44
2018-02-22T09:38:47.192Z,60.41
2018-02-22T09:41:15.741Z,61.56
2018-02-22T09:43:44.343Z,61.08
2018-02-22T09:46:12.897Z,61.45
2018-02-22T09:48:41.469Z,61.37
2018-02-22T09:51:11.025Z,61.37
2018-02-22T09:53:39.573Z,60.81
2018-02-22T09:56:08.118Z,60.33
2018-02-22T09:58:36.857Z,60.80
2018-02-22T10:01:05.401Z,63.23
2018-02-22T10:03:34.722Z,62.09
2018-02-22T10:06:03.472Z,60.66
2018-02-22T10:08:32.028Z,61.35
2018-02-22T10:11:00.588Z,59.98
2018-02-22T10:13:29.401Z,60.19
2018-02-22T10:15:57.950Z,61.23
2018-02-22T10:18:26.512Z,61.08
2018-02-22T10:20:55.888Z,62.44
2018-02-22T10:23:24.444Z,61.39
2018-02-22T10:25:53.033Z,62.16
2018-02-22T10:28:21.777Z,60.91
2018-02-22T10:30:51.092Z,62.47
2018-02-22T10:33:19.640Z,63.56
2018-02-22T10:35:49.011Z,62.70
2018-02-22T10:38:17.564Z,63.75
2018-02-22T10:40:46.133Z,64.37
2018-02-22T10:43:14.938Z,63.63
2018-02-22T10:45:43.493Z,65.33
2018-02-22T10:48:12.040Z,66.75
2018-02-22T10:50:41.412Z,67.71
2018-02-22T10:53:09.952Z,66.58
2018-02-22T10:55:38.513Z,67.31
2018-02-22T10:58:08.073Z,66.40
2018-02-22T11:00:42.091Z,64.57
2018-02-22T11:03:10.972Z,65.98
2018-02-22T11:05:39.520Z,66.47
2018-02-22T11:08:08.064Z,67.13
2018-02-22T11:10:36.941Z,67.31
2018-02-22T11:13:05.488Z,66.36
2018-02-22T11:15:34.032Z,65.37
2018-02-22T11:18:02.780Z,64.88
2018-02-22T11:20:31.328Z,65.35
2018-02-22T11:22:59.876Z,65.00
2018-02-22T11:25:28.485Z,64.99
2018-02-22T11:27:57.846Z,65.15
2018-02-22T11:30:26.392Z,65.76
2018-02-22T11:32:55.002Z,66.05
2018-02-22T11:35:23.550Z,67.19
2018-02-22T11:37:52.101Z,66.10
2018-02-22T11:40:21.784Z,65.60
2018-02-22T11:42:50.333Z,66.22
2018-02-22T11:45:18.880Z,65.02
2018-02-22T11:47:48.247Z,63.99
2018-02-22T11:50:16.823Z,64.11
2018-02-22T11:52:46.153Z,64.81
2018-02-22T11:55:14.884Z,65.69
2018-02-22T11:57:43.435Z,64.87
2018-02-22T12:00:12.773Z,65.94
2018-02-22T12:02:41.465Z,66.33
2018-02-22T12:05:10.008Z,66.09
2018-02-22T12:07:39.324Z,65.39
2018-02-22T12:10:08.085Z,64.64
2018-02-22T12:12:37.410Z,66.55
2018-02-22T12:15:05.957Z,65.27
2018-02-22T12:17:34.692Z,65.20
2018-02-22T12:20:03.240Z,65.00
2018-02-22T12:22:31.797Z,66.47
2018-02-22T12:25:00.538Z,66.73
2018-02-22T12:27:29.845Z,66.25
2018-02-22T12:29:58.393Z,65.82
2018-02-22T12:32:27.097Z,65.54
2018-02-22T12:34:56.409Z,66.42
2018-02-22T12:37:24.961Z,65.13
2018-02-22T12:39:53.924Z,66.20
2018-02-22T12:42:22.479Z,66.39
2018-02-22T12:44:52.744Z,67.59
2018-02-22T12:47:21.343Z,66.37
2018-02-22T12:49:49.904Z,66.53
2018-02-22T12:52:18.460Z,66.53
2018-02-22T12:54:47.376Z,66.08
2018-02-22T12:57:15.929Z,66.70
2018-02-22T12:59:44.484Z,66.47
2018-02-22T13:02:13.841Z,64.99
2018-02-22T13:04:42.395Z,65.11
2018-02-22T13:07:10.960Z,66.14
2018-02-22T13:09:39.802Z,66.48
2018-02-22T13:12:08.348Z,65.11
2018-02-22T13:14:36.913Z,65.80
2018-02-22T13:17:05.669Z,66.07
2018-02-22T13:19:34.225Z,66.76
2018-02-22T13:22:02.776Z,67.23
2018-02-22T13:24:31.376Z,67.61
2018-02-22T13:26:59.926Z,66.94
2018-02-22T13:29:29.242Z,67.04
2018-02-22T13:31:58.064Z,66.62
2018-02-22T13:34:35.852Z,66.76
2018-02-22T13:40:27.349Z,68.22
2018-02-22T13:42:57.121Z,68.13
2018-02-22T13:45:33.270Z,68.91
2018-02-22T13:48:02.172Z,66.96
2018-02-22T13:50:48.440Z,67.24
2018-02-22T13:53:17.128Z,67.06
2018-02-22T13:55:45.688Z,66.88
2018-02-22T13:58:15.009Z,67.87
2018-02-22T14:01:01.281Z,67.20
2018-02-22T14:03:30.599Z,67.37
2018-02-22T14:05:59.419Z,67.25
2018-02-22T14:08:46.574Z,67.99
2018-02-22T14:11:15.905Z,67.82
2018-02-22T14:13:44.456Z,66.62
2018-02-22T14:16:13.060Z,67.44
2018-02-22T14:18:42.422Z,67.48
2018-02-22T14:21:10.973Z,66.68
2018-02-22T14:23:39.685Z,67.07
2018-02-22T14:26:08.252Z,66.04
2018-02-22T14:28:37.357Z,65.97
2018-02-22T14:31:05.962Z,65.60
2018-02-22T14:33:34.529Z,65.70
2018-02-22T14:36:03.415Z,65.86
2018-02-22T14:38:32.064Z,66.09
2018-02-22T14:41:00.626Z,65.34
2018-02-22T14:43:29.945Z,66.17
2018-02-22T14:45:58.647Z,66.50
2018-02-22T14:48:27.210Z,64.79
2018-02-22T14:50:56.537Z,67.07
2018-02-22T14:53:25.346Z,67.87
2018-02-22T14:55:54.297Z,67.84
2018-02-22T14:58:22.847Z,66.96
2018-02-22T15:00:56.864Z,66.09
2018-02-22T15:03:25.417Z,67.68
2018-02-22T15:05:54.006Z,66.99
2018-02-22T15:08:22.707Z,67.47
2018-02-22T15:10:52.032Z,67.37
2018-02-22T15:13:21.359Z,67.15
2018-02-22T15:15:49.953Z,67.07
2018-02-22T15:18:18.505Z,66.98
2018-02-22T15:20:48.224Z,67.88
2018-02-22T15:23:17.868Z,67.28
2018-02-22T15:25:46.459Z,66.29
2018-02-22T15:28:15.017Z,67.38
2018-02-22T15:30:43.690Z,67.63
2018-02-22T15:33:12.248Z,66.68
2018-02-22T15:35:41.575Z,67.66
2018-02-22T15:38:10.409Z,67.80
2018-02-22T15:40:38.972Z,66.61
2018-02-22T15:43:07.563Z,66.53
2018-02-22T15:45:36.175Z,66.60
2018-02-22T15:48:04.751Z,66.57
2018-02-22T15:50:35.008Z,67.44
2018-02-22T15:53:03.621Z,65.91
2018-02-22T15:55:32.252Z,64.70
2018-02-22T15:58:02.308Z,64.50
2018-02-22T16:00:31.325Z,64.10
2018-02-22T16:02:59.876Z,64.05
2018-02-22T16:05:28.432Z,62.42
2018-02-22T16:07:57.900Z,62.92
2018-02-22T16:10:26.456Z,62.12
2018-02-22T16:12:55.018Z,63.30
2018-02-22T16:15:24.684Z,63.31
2018-02-22T16:17:53.245Z,63.82
2018-02-22T16:20:21.881Z,63.18
2018-02-22T16:22:52.374Z,62.50
2018-02-22T16:25:21.729Z,62.93
2018-02-22T16:27:50.293Z,61.47
2018-02-22T16:30:19.869Z,61.46
2018-02-22T16:32:48.429Z,60.39
2018-02-22T16:35:16.993Z,60.33
2018-02-22T16:37:45.750Z,59.83
2018-02-22T16:40:15.081Z,60.24
2018-02-22T16:42:44.089Z,60.75
2018-02-22T16:45:12.998Z,59.92
2018-02-22T16:47:41.554Z,60.60
2018-02-22T16:50:10.121Z,61.25
2018-02-22T16:52:38.739Z,61.08
2018-02-22T16:55:07.309Z,61.61
2018-02-22T16:57:35.872Z,62.38
2018-02-22T17:00:04.920Z,61.14
2018-02-22T17:02:33.510Z,61.30
2018-02-22T17:05:02.087Z,60.21
2018-02-22T17:07:30.879Z,63.76
2018-02-22T17:09:59.448Z,63.17
2018-02-22T17:12:28.060Z,61.82
2018-02-22T17:14:57.675Z,61.25
2018-02-22T17:17:44.869Z,60.25
2018-02-22T17:20:13.497Z,61.15
2018-02-22T17:22:42.074Z,60.77
2018-02-22T17:25:10.640Z,62.35
2018-02-22T17:27:44.812Z,61.96
2018-02-22T17:30:19.616Z,61.50
2018-02-22T17:32:48.227Z,61.16
2018-02-22T17:35:22.458Z,61.97
2018-02-22T17:37:57.656Z,61.84
2018-02-22T17:40:31.831Z,62.74
2018-02-22T17:43:00.469Z,63.17
2018-02-22T17:45:29.065Z,62.82
2018-02-22T17:47:58.437Z,62.13
2018-02-22T17:50:28.045Z,63.96
2018-02-22T17:52:56.936Z,63.33
2018-02-22T17:55:25.521Z,64.09
2018-02-22T17:57:54.308Z,63.72
2018-02-22T18:00:22.911Z,65.29
2018-02-22T18:02:51.526Z,64.97
2018-02-22T18:05:20.273Z,64.28
2018-02-22T18:07:49.588Z,65.33
2018-02-22T18:10:18.189Z,65.81
2018-02-22T18:12:46.832Z,66.61
2018-02-22T18:15:16.670Z,67.73
2018-02-22T18:17:45.253Z,67.85
2018-02-22T18:20:15.017Z,67.89
2018-02-22T18:22:43.613Z,65.38
2018-02-22T18:25:13.917Z,65.24
2018-02-22T18:27:42.527Z,66.17
2018-02-22T18:30:11.865Z,66.09
2018-02-22T18:32:40.450Z,66.47
2018-02-22T18:35:09.162Z,66.83
2018-02-22T18:37:42.981Z,67.11
2018-02-22T18:40:17.094Z,67.00
2018-02-22T18:42:50.342Z,67.86
2018-02-22T18:45:19.044Z,67.11
2018-02-22T18:47:47.606Z,67.10
2018-02-22T18:50:16.164Z,67.00
2018-02-22T18:52:45.696Z,66.88
2018-02-22T18:55:15.158Z,67.01
2018-02-22T18:57:43.721Z,67.96
2018-02-22T19:00:12.322Z,69.12
2018-02-22T19:02:40.897Z,68.59
2018-02-22T19:05:09.472Z,69.26
2018-02-22T19:07:38.077Z,67.84
2018-02-22T19:10:06.692Z,68.33
2018-02-22T19:12:36.013Z,68.50
2018-02-22T19:15:04.921Z,68.75
2018-02-22T19:17:34.400Z,69.01
2018-02-22T19:20:02.954Z,69.14
2018-02-22T19:22:32.340Z,69.60
2018-02-22T19:25:00.898Z,69.44
2018-02-22T19:27:29.482Z,68.86
2018-02-22T19:29:58.482Z,68.76
2018-02-22T19:32:27.044Z,69.53
2018-02-22T19:34:55.604Z,69.54
2018-02-22T19:37:24.362Z,70.08
2018-02-22T19:39:52.941Z,70.50
2018-02-22T19:42:22.296Z,70.17
2018-02-22T19:44:51.083Z,70.78
2018-02-22T19:47:19.641Z,70.76
2018-02-22T19:49:48.600Z,71.01
2018-02-22T19:52:18.163Z,70.12
2018-02-22T19:54:46.725Z,70.13
2018-02-22T19:57:15.285Z,69.35
2018-02-22T19:59:44.089Z,68.59
2018-02-22T20:02:12.651Z,70.95
2018-02-22T20:04:42.023Z,70.95
2018-02-22T20:07:10.902Z,69.80
2018-02-22T20:09:39.479Z,68.12
2018-02-22T20:12:08.054Z,67.55
2018-02-22T20:14:37.472Z,69.09
2018-02-22T20:17:06.040Z,69.63
2018-02-22T20:19:34.623Z,67.68
2018-02-22T20:22:03.412Z,67.28
2018-02-22T20:24:31.970Z,67.82
2018-02-22T20:27:00.529Z,67.30
2018-02-22T20:29:30.003Z,66.32
2018-02-22T20:31:58.570Z,67.18
2018-02-22T20:34:27.144Z,67.10
2018-02-22T20:36:55.768Z,66.91
2018-02-22T20:39:24.340Z,67.70
2018-02-22T20:41:52.900Z,67.23
2018-02-22T20:44:21.511Z,66.73
2018-02-22T20:46:50.075Z,65.63
2018-02-22T20:49:19.044Z,65.20
2018-02-22T20:51:48.477Z,65.67
2018-02-22T20:54:17.054Z,65.33
2018-02-22T20:56:45.637Z,66.47
2018-02-22T20:59:14.413Z,67.00
2018-02-22T21:01:42.968Z,67.80
2018-02-22T21:04:11.550Z,67.70
2018-02-22T21:06:40.153Z,68.70
2018-02-22T21:09:08.714Z,68.52
2018-02-22T21:11:37.277Z,68.33
2018-02-22T21:14:06.645Z,69.42
2018-02-22T21:16:35.204Z,69.54
2018-02-22T21:19:03.785Z,68.97
2018-02-22T21:21:32.397Z,68.02
2018-02-22T21:24:00.966Z,68.84
2018-02-22T21:26:29.525Z,68.22
2018-02-22T21:28:58.337Z,67.16
2018-02-22T21:31:26.897Z,66.79
2018-02-22T21:33:55.442Z,67.80
2018-02-22T21:36:24.814Z,68.75
2018-02-22T21:38:53.387Z,69.31
2018-02-22T21:41:21.986Z,67.31
2018-02-22T21:43:50.585Z,66.70
2018-02-22T21:46:19.145Z,67.29
2018-02-22T21:48:47.697Z,67.12
2018-02-22T21:51:16.306Z,68.19
2018-02-22T21:53:44.859Z,67.75
2018-02-22T21:56:13.420Z,67.91
2018-02-22T21:58:42.981Z,66.73
2018-02-22T22:01:11.536Z,66.32
2018-02-22T22:03:40.108Z,65.69
2018-02-22T22:06:08.941Z,66.12
2018-02-22T22:08:37.505Z,65.27
2018-02-22T22:11:06.060Z,65.48
2018-02-22T22:13:34.756Z,65.29
2018-02-22T22:16:03.311Z,64.85
2018-02-22T22:18:32.624Z,64.91
2018-02-22T22:21:02.281Z,64.38
2018-02-22T22:23:30.836Z,64.50
2018-02-22T22:25:59.397Z,64.89
2018-02-22T22:28:28.281Z,64.50
2018-02-22T22:30:57.598Z,64.78
2018-02-22T22:33:26.168Z,64.11
2018-02-22T22:35:55.814Z,63.77
2018-02-22T22:38:24.369Z,65.03
2018-02-22T22:40:52.925Z,65.36
2018-02-22T22:43:21.528Z,65.26
2018-02-22T22:45:50.845Z,64.63
2018-02-22T22:48:19.400Z,64.21
2018-02-22T22:50:48.781Z,64.89
2018-02-22T22:53:17.336Z,65.53
2018-02-22T22:55:45.888Z,65.35
2018-02-22T22:58:14.512Z,64.47
2018-02-22T23:00:43.060Z,63.81
2018-02-22T23:03:11.621Z,64.47
2018-02-22T23:05:40.989Z,63.95
2018-02-22T23:08:09.561Z,64.60
2018-02-22T23:10:38.112Z,64.81
2018-02-22T23:13:06.716Z,66.72
2018-02-22T23:15:35.266Z,68.37
2018-02-22T23:18:03.822Z,67.70
2018-02-22T23:20:33.194Z,67.33
2018-02-22T23:23:01.745Z,66.87
2018-02-22T23:25:30.296Z,68.09
2018-02-22T23:28:00.584Z,70.39
2018-02-22T23:30:29.138Z,71.02
2018-02-22T23:32:57.693Z,71.05
2018-02-22T23:35:27.189Z,70.16
2018-02-22T23:37:57.445Z,69.56
2018-02-22T23:40:37.016Z,68.94
2018-02-22T23:43:05.620Z,68.23
2018-02-22T23:45:34.192Z,67.98
2018-02-22T23:48:02.800Z,68.47
2018-02-22T23:50:31.429Z,69.32
2018-02-22T23:52:59.991Z,69.45
2018-02-22T23:55:28.645Z,68.04
2018-02-22T23:57:58.019Z,67.95
